sensor_id;sensor_type;location;lat;lon;timestamp;P1;durP1;ratioP1;P2;durP2;ratioP2
27424;SDS011;15244;49.088;11.886;2022-08-02T00:03:23;1.40;;;1.30;;
27424;SDS011;15244;49.088;11.886;2022-08-02T00:08:25;1.20;;;1.10;;
27424;SDS011;15244;49.088;11.886;2022-08-02T00:13:27;2.70;;;1.25;;
27424;SDS011;15244;49.088;11.886;2022-08-02T00:18:29;1.23;;;1.23;;
27424;SDS011;15244;49.088;11.886;2022-08-02T00:23:31;1.42;;;1.33;;
27424;SDS011;15244;49.088;11.886;2022-08-02T00:28:53;1.13;;;1.13;;
27424;SDS011;15244;49.088;11.886;2022-08-02T00:33:55;1.40;;;1.30;;
27424;SDS011;15244;49.088;11.886;2022-08-02T00:39:16;1.60;;;1.50;;
27424;SDS011;15244;49.088;11.886;2022-08-02T00:44:35;1.55;;;1.45;;
27424;SDS011;15244;49.088;11.886;2022-08-02T00:49:37;1.52;;;1.42;;
27424;SDS011;15244;49.088;11.886;2022-08-02T00:54:39;1.30;;;1.30;;
27424;SDS011;15244;49.088;11.886;2022-08-02T00:59:42;1.50;;;1.40;;
27424;SDS011;15244;49.088;11.886;2022-08-02T01:04:44;1.85;;;1.40;;
27424;SDS011;15244;49.088;11.886;2022-08-02T01:09:45;2.22;;;1.60;;
27424;SDS011;15244;49.088;11.886;2022-08-02T01:14:48;1.50;;;1.33;;
27424;SDS011;15244;49.088;11.886;2022-08-02T01:26:00;1.35;;;1.35;;
27424;SDS011;15244;49.088;11.886;2022-08-02T01:31:17;2.63;;;1.40;;
27424;SDS011;15244;49.088;11.886;2022-08-02T01:36:21;1.38;;;1.38;;
27424;SDS011;15244;49.088;11.886;2022-08-02T01:41:25;1.50;;;1.40;;
27424;SDS011;15244;49.088;11.886;2022-08-02T01:46:29;1.75;;;1.60;;
27424;SDS011;15244;49.088;11.886;2022-08-02T01:51:33;1.55;;;1.10;;
27424;SDS011;15244;49.088;11.886;2022-08-02T01:56:55;1.67;;;1.58;;
27424;SDS011;15244;49.088;11.886;2022-08-02T02:01:58;1.40;;;1.30;;
27424;SDS011;15244;49.088;11.886;2022-08-02T02:07:02;1.70;;;1.60;;
27424;SDS011;15244;49.088;11.886;2022-08-02T02:12:05;1.50;;;1.40;;
27424;SDS011;15244;49.088;11.886;2022-08-02T02:17:14;1.60;;;1.50;;
27424;SDS011;15244;49.088;11.886;2022-08-02T02:22:36;2.45;;;1.60;;
27424;SDS011;15244;49.088;11.886;2022-08-02T02:27:42;1.58;;;1.48;;
27424;SDS011;15244;49.088;11.886;2022-08-02T02:32:52;1.60;;;1.50;;
27424;SDS011;15244;49.088;11.886;2022-08-02T02:37:58;3.20;;;1.70;;
27424;SDS011;15244;49.088;11.886;2022-08-02T02:43:03;1.60;;;1.38;;
27424;SDS011;15244;49.088;11.886;2022-08-02T02:48:06;2.28;;;1.50;;
27424;SDS011;15244;49.088;11.886;2022-08-02T02:53:10;1.90;;;1.80;;
27424;SDS011;15244;49.088;11.886;2022-08-02T02:58:13;2.45;;;1.65;;
27424;SDS011;15244;49.088;11.886;2022-08-02T03:03:16;1.60;;;1.50;;
27424;SDS011;15244;49.088;11.886;2022-08-02T03:08:22;1.65;;;1.55;;
27424;SDS011;15244;49.088;11.886;2022-08-02T03:13:24;1.70;;;1.60;;
27424;SDS011;15244;49.088;11.886;2022-08-02T03:18:34;1.85;;;1.73;;
27424;SDS011;15244;49.088;11.886;2022-08-02T03:23:37;1.80;;;1.60;;
27424;SDS011;15244;49.088;11.886;2022-08-02T03:28:40;1.67;;;1.58;;
27424;SDS011;15244;49.088;11.886;2022-08-02T03:33:44;2.08;;;1.50;;
27424;SDS011;15244;49.088;11.886;2022-08-02T03:38:46;2.08;;;1.98;;
27424;SDS011;15244;49.088;11.886;2022-08-02T03:43:50;1.80;;;1.70;;
27424;SDS011;15244;49.088;11.886;2022-08-02T03:48:54;2.50;;;2.30;;
27424;SDS011;15244;49.088;11.886;2022-08-02T03:53:57;1.65;;;1.60;;
27424;SDS011;15244;49.088;11.886;2022-08-02T03:59:04;1.73;;;1.63;;
27424;SDS011;15244;49.088;11.886;2022-08-02T04:04:14;1.92;;;1.70;;
27424;SDS011;15244;49.088;11.886;2022-08-02T04:09:16;1.83;;;1.73;;
27424;SDS011;15244;49.088;11.886;2022-08-02T04:14:18;1.90;;;1.80;;
27424;SDS011;15244;49.088;11.886;2022-08-02T04:24:40;2.00;;;1.90;;
27424;SDS011;15244;49.088;11.886;2022-08-02T04:29:52;1.90;;;1.80;;
27424;SDS011;15244;49.088;11.886;2022-08-02T04:34:56;1.73;;;1.63;;
27424;SDS011;15244;49.088;11.886;2022-08-02T04:40:18;2.28;;;1.80;;
27424;SDS011;15244;49.088;11.886;2022-08-02T04:45:20;2.17;;;2.00;;
27424;SDS011;15244;49.088;11.886;2022-08-02T04:50:23;1.75;;;1.65;;
27424;SDS011;15244;49.088;11.886;2022-08-02T04:55:24;2.53;;;1.70;;
27424;SDS011;15244;49.088;11.886;2022-08-02T05:00:29;2.08;;;1.98;;
27424;SDS011;15244;49.088;11.886;2022-08-02T05:05:33;2.10;;;2.00;;
27424;SDS011;15244;49.088;11.886;2022-08-02T05:10:34;2.00;;;1.90;;
27424;SDS011;15244;49.088;11.886;2022-08-02T05:15:36;1.80;;;1.70;;
27424;SDS011;15244;49.088;11.886;2022-08-02T05:20:38;1.90;;;1.80;;
27424;SDS011;15244;49.088;11.886;2022-08-02T05:25:39;2.17;;;2.08;;
27424;SDS011;15244;49.088;11.886;2022-08-02T05:30:41;3.03;;;2.03;;
27424;SDS011;15244;49.088;11.886;2022-08-02T05:35:43;2.45;;;1.70;;
27424;SDS011;15244;49.088;11.886;2022-08-02T05:40:45;2.28;;;1.90;;
27424;SDS011;15244;49.088;11.886;2022-08-02T05:45:55;2.20;;;2.10;;
27424;SDS011;15244;49.088;11.886;2022-08-02T05:56:42;1.85;;;1.75;;
27424;SDS011;15244;49.088;11.886;2022-08-02T06:01:50;3.13;;;1.88;;
27424;SDS011;15244;49.088;11.886;2022-08-02T06:06:57;1.80;;;1.70;;
27424;SDS011;15244;49.088;11.886;2022-08-02T06:12:03;1.80;;;1.70;;
27424;SDS011;15244;49.088;11.886;2022-08-02T06:17:07;1.65;;;1.60;;
27424;SDS011;15244;49.088;11.886;2022-08-02T06:22:09;2.00;;;1.90;;
27424;SDS011;15244;49.088;11.886;2022-08-02T06:27:37;2.42;;;1.92;;
27424;SDS011;15244;49.088;11.886;2022-08-02T06:32:40;1.90;;;1.80;;
27424;SDS011;15244;49.088;11.886;2022-08-02T06:37:52;2.38;;;2.28;;
27424;SDS011;15244;49.088;11.886;2022-08-02T06:43:12;1.73;;;1.63;;
27424;SDS011;15244;49.088;11.886;2022-08-02T06:48:18;2.70;;;1.63;;
27424;SDS011;15244;49.088;11.886;2022-08-02T06:53:20;1.70;;;1.60;;
27424;SDS011;15244;49.088;11.886;2022-08-02T06:58:22;2.00;;;1.90;;
27424;SDS011;15244;49.088;11.886;2022-08-02T07:03:24;2.25;;;2.08;;
27424;SDS011;15244;49.088;11.886;2022-08-02T07:08:26;1.60;;;1.50;;
27424;SDS011;15244;49.088;11.886;2022-08-02T07:13:28;1.90;;;1.80;;
27424;SDS011;15244;49.088;11.886;2022-08-02T07:18:30;1.77;;;1.67;;
27424;SDS011;15244;49.088;11.886;2022-08-02T07:23:32;1.67;;;1.58;;
27424;SDS011;15244;49.088;11.886;2022-08-02T07:28:34;2.10;;;1.80;;
27424;SDS011;15244;49.088;11.886;2022-08-02T07:33:35;1.85;;;1.48;;
27424;SDS011;15244;49.088;11.886;2022-08-02T07:38:43;1.33;;;1.33;;
27424;SDS011;15244;49.088;11.886;2022-08-02T07:43:45;2.28;;;1.63;;
27424;SDS011;15244;49.088;11.886;2022-08-02T07:48:47;2.08;;;1.60;;
27424;SDS011;15244;49.088;11.886;2022-08-02T07:53:49;1.83;;;1.73;;
27424;SDS011;15244;49.088;11.886;2022-08-02T07:59:05;1.42;;;1.42;;
27424;SDS011;15244;49.088;11.886;2022-08-02T08:04:07;2.88;;;1.40;;
27424;SDS011;15244;49.088;11.886;2022-08-02T08:09:11;1.65;;;1.55;;
27424;SDS011;15244;49.088;11.886;2022-08-02T08:14:13;1.83;;;1.23;;
27424;SDS011;15244;49.088;11.886;2022-08-02T08:19:17;2.00;;;1.30;;
27424;SDS011;15244;49.088;11.886;2022-08-02T08:24:19;2.88;;;1.50;;
27424;SDS011;15244;49.088;11.886;2022-08-02T08:29:21;1.30;;;1.20;;
27424;SDS011;15244;49.088;11.886;2022-08-02T08:34:24;1.50;;;1.40;;
27424;SDS011;15244;49.088;11.886;2022-08-02T08:39:27;1.10;;;1.10;;
27424;SDS011;15244;49.088;11.886;2022-08-02T08:44:29;1.42;;;1.33;;
27424;SDS011;15244;49.088;11.886;2022-08-02T08:49:32;3.45;;;1.27;;
27424;SDS011;15244;49.088;11.886;2022-08-02T08:54:53;1.00;;;1.00;;
27424;SDS011;15244;49.088;11.886;2022-08-02T08:59:59;1.50;;;1.40;;
27424;SDS011;15244;49.088;11.886;2022-08-02T09:05:01;1.67;;;1.13;;
27424;SDS011;15244;49.088;11.886;2022-08-02T09:10:30;2.83;;;1.25;;
27424;SDS011;15244;49.088;11.886;2022-08-02T09:15:45;0.82;;;0.82;;
27424;SDS011;15244;49.088;11.886;2022-08-02T09:20:59;1.10;;;1.10;;
27424;SDS011;15244;49.088;11.886;2022-08-02T09:26:11;1.27;;;1.27;;
27424;SDS011;15244;49.088;11.886;2022-08-02T09:31:16;1.48;;;1.38;;
27424;SDS011;15244;49.088;11.886;2022-08-02T09:36:19;1.48;;;1.38;;
27424;SDS011;15244;49.088;11.886;2022-08-02T09:41:26;1.20;;;1.10;;
27424;SDS011;15244;49.088;11.886;2022-08-02T09:46:31;1.35;;;1.35;;
27424;SDS011;15244;49.088;11.886;2022-08-02T09:56:50;1.23;;;1.13;;
27424;SDS011;15244;49.088;11.886;2022-08-02T10:01:56;1.05;;;1.00;;
27424;SDS011;15244;49.088;11.886;2022-08-02T10:07:04;1.50;;;1.40;;
27424;SDS011;15244;49.088;11.886;2022-08-02T10:12:06;1.25;;;1.23;;
27424;SDS011;15244;49.088;11.886;2022-08-02T10:17:08;1.10;;;1.10;;
27424;SDS011;15244;49.088;11.886;2022-08-02T10:22:11;1.08;;;1.08;;
27424;SDS011;15244;49.088;11.886;2022-08-02T10:27:16;1.30;;;1.30;;
27424;SDS011;15244;49.088;11.886;2022-08-02T10:32:28;1.35;;;1.25;;
27424;SDS011;15244;49.088;11.886;2022-08-02T10:37:34;1.15;;;1.15;;
27424;SDS011;15244;49.088;11.886;2022-08-02T10:42:51;1.13;;;1.13;;
27424;SDS011;15244;49.088;11.886;2022-08-02T10:48:07;1.50;;;1.33;;
27424;SDS011;15244;49.088;11.886;2022-08-02T10:53:23;0.90;;;0.90;;
27424;SDS011;15244;49.088;11.886;2022-08-02T10:58:32;1.00;;;1.00;;
27424;SDS011;15244;49.088;11.886;2022-08-02T11:03:35;1.05;;;1.05;;
27424;SDS011;15244;49.088;11.886;2022-08-02T11:08:40;0.80;;;0.80;;
27424;SDS011;15244;49.088;11.886;2022-08-02T11:14:01;0.80;;;0.80;;
27424;SDS011;15244;49.088;11.886;2022-08-02T11:19:08;0.80;;;0.80;;
27424;SDS011;15244;49.088;11.886;2022-08-02T11:24:25;0.90;;;0.90;;
27424;SDS011;15244;49.088;11.886;2022-08-02T11:34:38;0.93;;;0.77;;
27424;SDS011;15244;49.088;11.886;2022-08-02T11:39:48;0.80;;;0.80;;
27424;SDS011;15244;49.088;11.886;2022-08-02T11:44:51;0.90;;;0.90;;
27424;SDS011;15244;49.088;11.886;2022-08-02T11:50:03;0.80;;;0.80;;
27424;SDS011;15244;49.088;11.886;2022-08-02T11:55:09;0.90;;;0.80;;
27424;SDS011;15244;49.088;11.886;2022-08-02T12:00:16;0.90;;;0.90;;
27424;SDS011;15244;49.088;11.886;2022-08-02T12:05:20;0.93;;;0.93;;
27424;SDS011;15244;49.088;11.886;2022-08-02T12:10:48;0.90;;;0.90;;
27424;SDS011;15244;49.088;11.886;2022-08-02T12:15:50;2.85;;;0.98;;
27424;SDS011;15244;49.088;11.886;2022-08-02T12:20:52;0.77;;;0.77;;
27424;SDS011;15244;49.088;11.886;2022-08-02T12:31:08;2.80;;;0.82;;
27424;SDS011;15244;49.088;11.886;2022-08-02T12:36:17;0.80;;;0.80;;
27424;SDS011;15244;49.088;11.886;2022-08-02T12:41:21;0.65;;;0.65;;
27424;SDS011;15244;49.088;11.886;2022-08-02T12:46:32;2.00;;;0.80;;
27424;SDS011;15244;49.088;11.886;2022-08-02T12:51:42;1.75;;;0.90;;
27424;SDS011;15244;49.088;11.886;2022-08-02T12:57:11;1.10;;;0.50;;
27424;SDS011;15244;49.088;11.886;2022-08-02T13:02:14;0.90;;;0.65;;
27424;SDS011;15244;49.088;11.886;2022-08-02T13:07:18;1.17;;;0.88;;
27424;SDS011;15244;49.088;11.886;2022-08-02T13:12:20;1.25;;;0.90;;
27424;SDS011;15244;49.088;11.886;2022-08-02T13:17:22;0.60;;;0.60;;
27424;SDS011;15244;49.088;11.886;2022-08-02T13:22:24;1.42;;;0.50;;
27424;SDS011;15244;49.088;11.886;2022-08-02T13:27:29;0.90;;;0.80;;
27424;SDS011;15244;49.088;11.886;2022-08-02T13:32:32;0.40;;;0.40;;
27424;SDS011;15244;49.088;11.886;2022-08-02T13:37:35;0.85;;;0.85;;
27424;SDS011;15244;49.088;11.886;2022-08-02T13:42:40;0.63;;;0.60;;
27424;SDS011;15244;49.088;11.886;2022-08-02T13:47:42;0.50;;;0.50;;
27424;SDS011;15244;49.088;11.886;2022-08-02T13:53:05;0.57;;;0.57;;
27424;SDS011;15244;49.088;11.886;2022-08-02T13:58:07;0.70;;;0.70;;
27424;SDS011;15244;49.088;11.886;2022-08-02T14:03:09;0.60;;;0.60;;
27424;SDS011;15244;49.088;11.886;2022-08-02T14:08:12;0.60;;;0.60;;
27424;SDS011;15244;49.088;11.886;2022-08-02T14:13:17;0.55;;;0.55;;
27424;SDS011;15244;49.088;11.886;2022-08-02T14:18:19;1.50;;;0.60;;
27424;SDS011;15244;49.088;11.886;2022-08-02T14:23:21;0.50;;;0.50;;
27424;SDS011;15244;49.088;11.886;2022-08-02T14:28:43;0.82;;;0.68;;
27424;SDS011;15244;49.088;11.886;2022-08-02T14:33:50;0.70;;;0.70;;
27424;SDS011;15244;49.088;11.886;2022-08-02T14:38:51;1.08;;;0.68;;
27424;SDS011;15244;49.088;11.886;2022-08-02T14:43:53;0.60;;;0.60;;
27424;SDS011;15244;49.088;11.886;2022-08-02T14:49:06;2.15;;;1.23;;
27424;SDS011;15244;49.088;11.886;2022-08-02T14:54:09;0.55;;;0.55;;
27424;SDS011;15244;49.088;11.886;2022-08-02T14:59:14;1.17;;;0.75;;
27424;SDS011;15244;49.088;11.886;2022-08-02T15:04:16;0.60;;;0.60;;
27424;SDS011;15244;49.088;11.886;2022-08-02T15:09:18;0.52;;;0.52;;
27424;SDS011;15244;49.088;11.886;2022-08-02T15:14:20;0.68;;;0.68;;
27424;SDS011;15244;49.088;11.886;2022-08-02T15:19:26;0.70;;;0.70;;
27424;SDS011;15244;49.088;11.886;2022-08-02T15:24:49;2.38;;;0.70;;
27424;SDS011;15244;49.088;11.886;2022-08-02T15:29:51;2.10;;;0.70;;
27424;SDS011;15244;49.088;11.886;2022-08-02T15:35:03;0.60;;;0.60;;
27424;SDS011;15244;49.088;11.886;2022-08-02T15:40:06;0.70;;;0.70;;
27424;SDS011;15244;49.088;11.886;2022-08-02T15:45:20;0.60;;;0.60;;
27424;SDS011;15244;49.088;11.886;2022-08-02T15:50:22;0.68;;;0.68;;
27424;SDS011;15244;49.088;11.886;2022-08-02T15:55:24;0.63;;;0.63;;
27424;SDS011;15244;49.088;11.886;2022-08-02T16:00:26;2.40;;;0.70;;
27424;SDS011;15244;49.088;11.886;2022-08-02T16:05:30;1.38;;;0.60;;
27424;SDS011;15244;49.088;11.886;2022-08-02T16:10:32;0.65;;;0.65;;
27424;SDS011;15244;49.088;11.886;2022-08-02T16:15:34;0.88;;;0.55;;
27424;SDS011;15244;49.088;11.886;2022-08-02T16:20:36;0.70;;;0.70;;
27424;SDS011;15244;49.088;11.886;2022-08-02T16:25:38;1.30;;;0.80;;
27424;SDS011;15244;49.088;11.886;2022-08-02T16:30:42;0.73;;;0.63;;
27424;SDS011;15244;49.088;11.886;2022-08-02T16:36:04;0.43;;;0.43;;
27424;SDS011;15244;49.088;11.886;2022-08-02T16:41:05;0.50;;;0.50;;
27424;SDS011;15244;49.088;11.886;2022-08-02T16:46:07;1.27;;;0.50;;
27424;SDS011;15244;49.088;11.886;2022-08-02T16:51:10;0.70;;;0.70;;
27424;SDS011;15244;49.088;11.886;2022-08-02T16:56:14;0.60;;;0.60;;
27424;SDS011;15244;49.088;11.886;2022-08-02T17:01:17;0.70;;;0.70;;
27424;SDS011;15244;49.088;11.886;2022-08-02T17:06:27;0.55;;;0.55;;
27424;SDS011;15244;49.088;11.886;2022-08-02T17:11:29;0.50;;;0.50;;
27424;SDS011;15244;49.088;11.886;2022-08-02T17:16:31;1.85;;;0.80;;
27424;SDS011;15244;49.088;11.886;2022-08-02T17:21:33;0.30;;;0.30;;
27424;SDS011;15244;49.088;11.886;2022-08-02T17:26:35;3.03;;;0.80;;
27424;SDS011;15244;49.088;11.886;2022-08-02T17:31:38;0.95;;;0.50;;
27424;SDS011;15244;49.088;11.886;2022-08-02T17:36:46;0.60;;;0.60;;
27424;SDS011;15244;49.088;11.886;2022-08-02T17:41:50;0.85;;;0.85;;
27424;SDS011;15244;49.088;11.886;2022-08-02T17:46:52;0.55;;;0.50;;
27424;SDS011;15244;49.088;11.886;2022-08-02T17:51:54;1.83;;;0.70;;
27424;SDS011;15244;49.088;11.886;2022-08-02T17:57:16;0.95;;;0.77;;
27424;SDS011;15244;49.088;11.886;2022-08-02T18:02:20;0.63;;;0.63;;
27424;SDS011;15244;49.088;11.886;2022-08-02T18:07:21;1.15;;;0.60;;
27424;SDS011;15244;49.088;11.886;2022-08-02T18:12:25;0.60;;;0.57;;
27424;SDS011;15244;49.088;11.886;2022-08-02T18:17:28;1.38;;;0.75;;
27424;SDS011;15244;49.088;11.886;2022-08-02T18:22:29;0.70;;;0.68;;
27424;SDS011;15244;49.088;11.886;2022-08-02T18:27:31;0.60;;;0.60;;
27424;SDS011;15244;49.088;11.886;2022-08-02T18:32:33;1.88;;;0.70;;
27424;SDS011;15244;49.088;11.886;2022-08-02T18:37:55;1.20;;;0.80;;
27424;SDS011;15244;49.088;11.886;2022-08-02T18:43:17;0.80;;;0.80;;
27424;SDS011;15244;49.088;11.886;2022-08-02T18:48:26;1.58;;;0.90;;
27424;SDS011;15244;49.088;11.886;2022-08-02T18:53:34;1.90;;;0.60;;
27424;SDS011;15244;49.088;11.886;2022-08-02T18:58:42;1.10;;;0.70;;
27424;SDS011;15244;49.088;11.886;2022-08-02T19:03:45;1.48;;;0.60;;
27424;SDS011;15244;49.088;11.886;2022-08-02T19:08:49;2.15;;;0.70;;
27424;SDS011;15244;49.088;11.886;2022-08-02T19:14:12;3.20;;;0.90;;
27424;SDS011;15244;49.088;11.886;2022-08-02T19:19:28;1.50;;;0.90;;
27424;SDS011;15244;49.088;11.886;2022-08-02T19:24:30;3.22;;;0.75;;
27424;SDS011;15244;49.088;11.886;2022-08-02T19:29:31;0.70;;;0.65;;
27424;SDS011;15244;49.088;11.886;2022-08-02T19:34:49;1.20;;;0.90;;
27424;SDS011;15244;49.088;11.886;2022-08-02T19:39:52;0.70;;;0.70;;
27424;SDS011;15244;49.088;11.886;2022-08-02T19:44:54;1.25;;;0.70;;
27424;SDS011;15244;49.088;11.886;2022-08-02T19:49:57;0.70;;;0.65;;
27424;SDS011;15244;49.088;11.886;2022-08-02T19:55:01;0.50;;;0.50;;
27424;SDS011;15244;49.088;11.886;2022-08-02T20:00:25;0.60;;;0.60;;
27424;SDS011;15244;49.088;11.886;2022-08-02T20:05:27;1.20;;;0.60;;
27424;SDS011;15244;49.088;11.886;2022-08-02T20:10:30;0.80;;;0.60;;
27424;SDS011;15244;49.088;11.886;2022-08-02T20:15:33;0.50;;;0.50;;
27424;SDS011;15244;49.088;11.886;2022-08-02T20:20:56;0.50;;;0.50;;
27424;SDS011;15244;49.088;11.886;2022-08-02T20:25:58;0.60;;;0.60;;
27424;SDS011;15244;49.088;11.886;2022-08-02T20:31:02;1.25;;;0.88;;
27424;SDS011;15244;49.088;11.886;2022-08-02T20:36:09;0.98;;;0.77;;
27424;SDS011;15244;49.088;11.886;2022-08-02T20:41:10;1.20;;;0.73;;
27424;SDS011;15244;49.088;11.886;2022-08-02T20:46:22;3.53;;;0.80;;
27424;SDS011;15244;49.088;11.886;2022-08-02T20:51:25;0.60;;;0.60;;
27424;SDS011;15244;49.088;11.886;2022-08-02T20:56:34;0.60;;;0.60;;
27424;SDS011;15244;49.088;11.886;2022-08-02T21:01:36;1.02;;;0.80;;
27424;SDS011;15244;49.088;11.886;2022-08-02T21:06:58;0.65;;;0.65;;
27424;SDS011;15244;49.088;11.886;2022-08-02T21:12:03;0.80;;;0.80;;
27424;SDS011;15244;49.088;11.886;2022-08-02T21:17:06;1.98;;;0.77;;
27424;SDS011;15244;49.088;11.886;2022-08-02T21:22:26;0.80;;;0.60;;
27424;SDS011;15244;49.088;11.886;2022-08-02T21:27:28;0.60;;;0.60;;
27424;SDS011;15244;49.088;11.886;2022-08-02T21:32:51;4.45;;;0.70;;
27424;SDS011;15244;49.088;11.886;2022-08-02T21:37:57;1.02;;;0.63;;
27424;SDS011;15244;49.088;11.886;2022-08-02T21:42:58;1.02;;;0.80;;
27424;SDS011;15244;49.088;11.886;2022-08-02T21:48:02;2.28;;;0.88;;
27424;SDS011;15244;49.088;11.886;2022-08-02T21:53:04;2.20;;;1.05;;
27424;SDS011;15244;49.088;11.886;2022-08-02T21:58:13;0.70;;;0.70;;
27424;SDS011;15244;49.088;11.886;2022-08-02T22:03:20;1.05;;;1.05;;
27424;SDS011;15244;49.088;11.886;2022-08-02T22:08:30;0.80;;;0.75;;
27424;SDS011;15244;49.088;11.886;2022-08-02T22:13:33;0.70;;;0.70;;
27424;SDS011;15244;49.088;11.886;2022-08-02T22:18:47;2.60;;;0.80;;
27424;SDS011;15244;49.088;11.886;2022-08-02T22:23:54;1.77;;;0.90;;
27424;SDS011;15244;49.088;11.886;2022-08-02T22:28:56;1.60;;;0.85;;
27424;SDS011;15244;49.088;11.886;2022-08-02T22:33:59;5.38;;;1.10;;
27424;SDS011;15244;49.088;11.886;2022-08-02T22:39:27;1.20;;;1.00;;
27424;SDS011;15244;49.088;11.886;2022-08-02T22:44:29;1.00;;;1.00;;
27424;SDS011;15244;49.088;11.886;2022-08-02T22:49:34;2.63;;;0.90;;
27424;SDS011;15244;49.088;11.886;2022-08-02T22:54:52;0.90;;;0.90;;
27424;SDS011;15244;49.088;11.886;2022-08-02T22:59:55;0.93;;;0.90;;
27424;SDS011;15244;49.088;11.886;2022-08-02T23:04:58;1.13;;;0.95;;
27424;SDS011;15244;49.088;11.886;2022-08-02T23:10:00;1.17;;;1.13;;
27424;SDS011;15244;49.088;11.886;2022-08-02T23:15:04;1.15;;;1.10;;
27424;SDS011;15244;49.088;11.886;2022-08-02T23:20:06;1.13;;;1.02;;
27424;SDS011;15244;49.088;11.886;2022-08-02T23:25:11;1.30;;;1.20;;
27424;SDS011;15244;49.088;11.886;2022-08-02T23:30:14;1.15;;;1.10;;
27424;SDS011;15244;49.088;11.886;2022-08-02T23:35:16;1.38;;;1.30;;
27424;SDS011;15244;49.088;11.886;2022-08-02T23:40:18;1.67;;;1.33;;
27424;SDS011;15244;49.088;11.886;2022-08-02T23:45:41;1.35;;;1.25;;
27424;SDS011;15244;49.088;11.886;2022-08-02T23:50:45;1.50;;;1.40;;
27424;SDS011;15244;49.088;11.886;2022-08-02T23:55:48;1.65;;;1.55;;
